aviador You're here:

KCMX Decoded Metar

HANCOCK in MI, USA
Report Time2018-04-26 12:53:00
UTC Time2018-04-26 13:12:40
Flight Rules vfr VFR
Wind260° at 09 kt
W.Decomp.*RWY 25: 8.8 kt HW 1.9 kt RCW
RWY 31: 6.0 kt HW 6.7 kt LCW
W.Rank260° ranks 11
Current wind is below 260° avg. (11.1)
Visibility9999 m
Phenomena:N/A
Clouds:N/A
Expected CloudBase > 5,200 ft AGL from Temp-Dew spread
CeilingNone
Temp08°C (ISA -5)
Dew Point-5°C (40% RH)
AAT2.2°C
QNH1009 hPa
Density Alt686 ft
Elevation1,070 ft
Report Wrong Elevation
Raw Report
KCMX 261253Z AUTO 26009KT 10SM CLR 08/M05 A2979 RMK AO2 SLP095
T00831050=

Extra information for KCMX:More info

Metar Taf Metar & Taf Last 4 Metars F.Rules Stats Wind Profile Meteogram Temp Stats Airport Information Weather charts Add Link Nearby VenuesMetar ALERT Operation Metar Decoded Social comments

AIRNAV info for KCMX